createdAt,value
2019-05-02T00:01:47.430Z,7.67
2019-05-02T00:04:19.986Z,8.50
2019-05-02T00:06:44.074Z,8.37
2019-05-02T00:09:11.129Z,9.03
2019-05-02T00:11:38.178Z,8.17
2019-05-02T00:14:05.025Z,7.17
2019-05-02T00:16:31.861Z,8.00
2019-05-02T00:18:58.707Z,8.50
2019-05-02T00:21:25.732Z,7.90
2019-05-02T00:23:52.489Z,8.23
2019-05-02T00:26:19.327Z,8.20
2019-05-02T00:28:48.075Z,9.03
2019-05-02T00:31:14.648Z,8.70
2019-05-02T00:33:41.489Z,8.53
2019-05-02T00:36:08.332Z,8.53
2019-05-02T00:38:38.606Z,9.50
2019-05-02T00:41:03.807Z,8.47
2019-05-02T00:43:34.349Z,9.07
2019-05-02T00:45:59.795Z,8.40
2019-05-02T00:48:27.555Z,9.83
2019-05-02T00:50:54.399Z,11.27
2019-05-02T00:53:21.244Z,11.73
2019-05-02T00:55:48.243Z,10.73
2019-05-02T00:58:15.028Z,11.90
2019-05-02T01:00:41.874Z,11.73
2019-05-02T01:03:11.089Z,13.80
2019-05-02T01:05:38.592Z,12.50
2019-05-02T01:08:05.582Z,13.93
2019-05-02T01:10:32.416Z,13.50
2019-05-02T01:12:59.160Z,13.37
2019-05-02T01:15:25.994Z,13.17
2019-05-02T01:17:52.890Z,14.47
2019-05-02T01:20:22.307Z,13.13
2019-05-02T01:22:52.205Z,15.63
2019-05-02T01:25:17.260Z,15.37
2019-05-02T01:27:44.094Z,16.03
2019-05-02T01:30:11.241Z,14.43
2019-05-02T01:32:38.084Z,16.03
2019-05-02T01:35:04.923Z,16.60
2019-05-02T01:37:31.667Z,15.23
2019-05-02T01:39:58.508Z,17.83
2019-05-02T01:42:25.349Z,15.40
2019-05-02T01:44:52.096Z,15.73
2019-05-02T01:47:18.931Z,17.80
2019-05-02T01:49:45.770Z,16.90
2019-05-02T01:52:12.616Z,16.67
2019-05-02T01:54:40.747Z,16.53
2019-05-02T01:57:08.669Z,18.37
2019-05-02T01:59:36.596Z,19.60
2019-05-02T02:02:03.458Z,18.90
2019-05-02T02:04:30.306Z,18.00
2019-05-02T02:06:57.043Z,19.03
2019-05-02T02:09:23.887Z,19.97
2019-05-02T02:11:50.724Z,19.13
2019-05-02T02:14:18.717Z,19.00
2019-05-02T02:16:45.846Z,21.50
2019-05-02T02:19:12.691Z,20.93
2019-05-02T02:21:42.555Z,22.13
2019-05-02T02:24:08.021Z,21.70
2019-05-02T02:26:34.846Z,20.90
2019-05-02T02:29:03.081Z,20.80
2019-05-02T02:31:30.127Z,19.30
2019-05-02T02:33:56.906Z,20.17
2019-05-02T02:36:31.536Z,21.20
2019-05-02T02:38:52.499Z,19.53
2019-05-02T02:41:19.283Z,22.17
2019-05-02T02:43:46.118Z,19.60
2019-05-02T02:46:13.480Z,20.70
2019-05-02T02:48:42.472Z,22.40
2019-05-02T02:51:08.807Z,20.97
2019-05-02T02:53:35.638Z,22.50
2019-05-02T02:56:03.895Z,21.70
2019-05-02T02:58:30.959Z,21.83
2019-05-02T03:00:57.798Z,22.83
2019-05-02T03:03:27.838Z,21.17
2019-05-02T03:05:58.732Z,22.47
2019-05-02T03:08:21.606Z,23.20
2019-05-02T03:10:48.441Z,22.23
2019-05-02T03:13:21.832Z,21.77
2019-05-02T03:15:43.724Z,19.97
2019-05-02T03:18:10.503Z,20.23
2019-05-02T03:20:40.703Z,20.03
2019-05-02T03:23:05.826Z,20.00
2019-05-02T03:25:49.890Z,19.47
2019-05-02T03:28:01.043Z,19.17
2019-05-02T03:30:36.367Z,17.93
2019-05-02T03:33:06.282Z,20.43
2019-05-02T03:35:40.760Z,20.03
2019-05-02T03:37:53.636Z,20.47
2019-05-02T03:40:20.374Z,20.97
2019-05-02T03:42:47.716Z,18.37
2019-05-02T03:45:14.878Z,19.40
2019-05-02T03:47:43.997Z,19.07
2019-05-02T03:50:10.199Z,18.97
2019-05-02T03:52:43.688Z,18.87
2019-05-02T03:55:05.425Z,20.40
2019-05-02T03:57:35.786Z,18.40
2019-05-02T04:00:00.711Z,18.20
2019-05-02T04:02:27.477Z,17.03
2019-05-02T04:05:00.010Z,16.63
2019-05-02T04:07:23.060Z,17.03
2019-05-02T04:09:49.852Z,17.50
2019-05-02T04:12:19.395Z,16.90
2019-05-02T04:14:45.146Z,16.10
2019-05-02T04:17:11.936Z,15.13
2019-05-02T04:19:38.749Z,16.70
2019-05-02T04:22:08.866Z,15.57
2019-05-02T04:24:34.173Z,15.40
2019-05-02T04:27:01.011Z,14.23
2019-05-02T04:29:31.301Z,14.50
2019-05-02T04:31:56.338Z,13.67
2019-05-02T04:34:23.279Z,13.43
2019-05-02T04:36:59.766Z,12.63
2019-05-02T04:39:21.655Z,11.80
2019-05-02T04:41:48.531Z,11.67
2019-05-02T04:44:15.357Z,12.80
2019-05-02T04:46:42.206Z,11.97
2019-05-02T04:49:09.377Z,12.30
2019-05-02T04:51:38.171Z,12.53
2019-05-02T04:54:04.773Z,12.10
2019-05-02T04:56:31.616Z,12.50
2019-05-02T04:59:01.353Z,12.60
2019-05-02T05:01:33.087Z,10.87
2019-05-02T05:03:58.234Z,11.50
2019-05-02T05:06:24.002Z,10.63
2019-05-02T05:08:50.843Z,12.00
2019-05-02T05:11:20.807Z,12.10
2019-05-02T05:13:47.895Z,11.83
2019-05-02T05:16:15.640Z,11.63
2019-05-02T05:18:44.015Z,14.27
2019-05-02T05:21:11.190Z,12.03
2019-05-02T05:23:38.270Z,11.60
2019-05-02T05:26:07.123Z,11.67
2019-05-02T05:28:35.071Z,10.53
2019-05-02T05:31:02.139Z,10.87
2019-05-02T05:33:28.927Z,11.47
2019-05-02T05:35:57.774Z,10.87
2019-05-02T05:38:28.569Z,9.80
2019-05-02T05:40:52.795Z,10.33
2019-05-02T05:43:20.611Z,9.17
2019-05-02T05:45:53.970Z,11.13
2019-05-02T05:48:18.263Z,10.43
2019-05-02T05:50:44.450Z,10.10
2019-05-02T05:53:12.441Z,10.77
2019-05-02T05:55:39.881Z,8.57
2019-05-02T05:58:14.613Z,8.63
2019-05-02T06:00:35.208Z,10.10
2019-05-02T06:03:11.550Z,9.90
2019-05-02T06:05:33.131Z,11.13
2019-05-02T06:07:59.008Z,9.23
2019-05-02T06:10:25.847Z,10.77
2019-05-02T06:12:52.685Z,9.43
2019-05-02T06:15:19.531Z,11.47
2019-05-02T06:17:46.366Z,10.87
2019-05-02T06:20:13.207Z,9.30
2019-05-02T06:22:39.949Z,8.23
2019-05-02T06:25:09.478Z,8.83
2019-05-02T06:27:35.130Z,8.70
2019-05-02T06:30:01.904Z,8.70
2019-05-02T06:32:28.783Z,8.93
2019-05-02T06:34:55.591Z,9.10
2019-05-02T06:37:22.428Z,9.80
2019-05-02T06:39:49.172Z,10.10
2019-05-02T06:42:16.014Z,9.27
2019-05-02T06:44:42.758Z,10.47
2019-05-02T06:47:09.594Z,11.00
2019-05-02T06:49:36.693Z,9.40
2019-05-02T06:52:03.482Z,10.50
2019-05-02T06:54:30.426Z,11.07
2019-05-02T06:56:57.239Z,11.30
2019-05-02T06:59:24.008Z,11.00
2019-05-02T07:01:52.375Z,12.57
2019-05-02T07:04:23.059Z,12.37
2019-05-02T07:06:58.291Z,11.17
2019-05-02T07:09:16.503Z,14.47
2019-05-02T07:11:56.386Z,14.03
2019-05-02T07:14:13.442Z,12.70
2019-05-02T07:16:40.305Z,14.33
2019-05-02T07:19:07.096Z,14.23
2019-05-02T07:21:33.877Z,13.03
2019-05-02T07:24:00.724Z,13.93
2019-05-02T07:26:27.620Z,14.47
2019-05-02T07:28:54.401Z,15.73
2019-05-02T07:31:21.244Z,13.40
2019-05-02T07:33:48.101Z,14.27
2019-05-02T07:36:14.926Z,12.90
2019-05-02T07:38:41.775Z,15.77
2019-05-02T07:41:08.612Z,14.38
2019-05-02T07:43:35.460Z,15.38
2019-05-02T07:46:02.295Z,13.62
2019-05-02T07:48:29.233Z,14.70
2019-05-02T07:50:56.321Z,15.08
2019-05-02T07:53:23.534Z,14.05
2019-05-02T07:55:50.329Z,15.48
2019-05-02T07:58:17.122Z,15.93
2019-05-02T08:00:43.989Z,14.43
2019-05-02T08:03:10.804Z,13.60
2019-05-02T08:05:37.653Z,14.40
2019-05-02T08:08:04.489Z,14.85
2019-05-02T08:10:31.436Z,13.88
2019-05-02T08:12:58.282Z,15.00
2019-05-02T08:15:25.113Z,13.35
2019-05-02T08:17:53.764Z,11.73
2019-05-02T08:20:21.281Z,14.70
2019-05-02T08:22:49.047Z,12.10
2019-05-02T08:25:16.586Z,11.33
2019-05-02T08:27:43.414Z,10.90
2019-05-02T08:30:10.256Z,10.58
2019-05-02T08:32:37.098Z,11.48
2019-05-02T08:35:03.940Z,10.40
2019-05-02T08:37:35.369Z,10.23
2019-05-02T08:39:59.268Z,10.40
2019-05-02T08:42:27.674Z,11.28
2019-05-02T08:44:56.357Z,10.32
2019-05-02T08:47:23.756Z,11.18
2019-05-02T08:49:54.713Z,9.58
2019-05-02T08:52:20.021Z,9.85
2019-05-02T08:54:46.865Z,9.88
2019-05-02T08:57:13.605Z,10.35
2019-05-02T08:59:40.923Z,9.00
2019-05-02T09:02:07.801Z,9.78
2019-05-02T09:04:34.642Z,9.80
2019-05-02T09:07:01.526Z,9.45
2019-05-02T09:09:29.573Z,9.38
2019-05-02T09:12:08.697Z,8.93
2019-05-02T09:14:24.879Z,9.38
2019-05-02T09:16:52.424Z,9.88
2019-05-02T09:19:21.207Z,9.38
2019-05-02T09:21:47.759Z,9.75
2019-05-02T09:24:21.016Z,7.95
2019-05-02T09:26:42.986Z,9.83
2019-05-02T09:29:09.815Z,8.88
2019-05-02T09:31:40.892Z,8.55
2019-05-02T09:34:05.137Z,9.13
2019-05-02T09:36:32.350Z,10.35
2019-05-02T09:38:59.331Z,9.30
2019-05-02T09:41:26.853Z,9.85
2019-05-02T09:43:54.668Z,8.85
2019-05-02T09:46:21.811Z,8.58
2019-05-02T09:48:48.745Z,9.38
2019-05-02T09:51:17.467Z,8.63
2019-05-02T09:53:43.936Z,9.35
2019-05-02T09:56:12.640Z,9.45
2019-05-02T09:58:39.104Z,10.00
2019-05-02T10:01:05.927Z,10.70
2019-05-02T10:03:32.664Z,8.85
2019-05-02T10:05:59.406Z,9.08
2019-05-02T10:08:26.247Z,10.70
2019-05-02T10:10:53.093Z,9.78
2019-05-02T10:13:19.832Z,9.90
2019-05-02T10:15:46.696Z,10.40
2019-05-02T10:18:14.500Z,11.83
2019-05-02T10:20:41.996Z,10.98
2019-05-02T10:23:12.093Z,11.50
2019-05-02T10:25:38.911Z,11.40
2019-05-02T10:28:05.814Z,10.80
2019-05-02T10:30:35.658Z,11.88
2019-05-02T10:33:02.511Z,11.55
2019-05-02T10:35:37.190Z,12.15
2019-05-02T10:37:57.981Z,10.68
2019-05-02T10:40:24.814Z,11.03
2019-05-02T10:42:52.197Z,10.98
2019-05-02T10:45:19.514Z,9.45
2019-05-02T10:47:46.572Z,11.12
2019-05-02T10:50:13.411Z,10.60
2019-05-02T10:52:42.404Z,11.35
2019-05-02T10:55:08.850Z,10.50
2019-05-02T10:57:35.775Z,9.80
2019-05-02T11:00:03.256Z,10.35
2019-05-02T11:02:32.601Z,11.03
2019-05-02T11:04:58.871Z,10.82
2019-05-02T11:07:26.460Z,9.90
2019-05-02T11:09:57.276Z,9.73
2019-05-02T11:12:25.621Z,11.50
2019-05-02T11:14:51.691Z,11.10
2019-05-02T11:17:18.718Z,11.33
2019-05-02T11:19:45.648Z,11.28
2019-05-02T11:22:12.486Z,10.30
2019-05-02T11:24:39.333Z,10.43
2019-05-02T11:27:08.199Z,10.68
2019-05-02T11:29:34.656Z,10.93
2019-05-02T11:32:02.738Z,11.57
2019-05-02T11:34:29.649Z,9.80
2019-05-02T11:36:56.449Z,12.20
2019-05-02T11:39:31.868Z,11.95
2019-05-02T11:41:52.746Z,9.38
2019-05-02T11:44:19.701Z,10.00
2019-05-02T11:46:47.122Z,9.63
2019-05-02T11:49:13.894Z,9.13
2019-05-02T11:51:42.187Z,10.98
2019-05-02T11:54:09.531Z,10.43
2019-05-02T11:56:36.384Z,10.45
2019-05-02T11:59:03.210Z,11.08
2019-05-02T12:01:37.269Z,10.18
2019-05-02T12:03:58.524Z,8.90
2019-05-02T12:06:25.341Z,10.53
2019-05-02T12:08:52.714Z,10.28
2019-05-02T12:11:19.899Z,9.03
2019-05-02T12:13:47.273Z,9.03
2019-05-02T12:16:15.964Z,8.93
2019-05-02T12:18:42.751Z,8.85
2019-05-02T12:21:09.595Z,9.25
2019-05-02T12:23:36.535Z,8.65
2019-05-02T12:26:03.719Z,8.70
2019-05-02T12:28:32.380Z,9.20
2019-05-02T12:30:58.971Z,8.93
2019-05-02T12:33:25.747Z,8.15
2019-05-02T12:35:53.000Z,8.28
2019-05-02T12:38:19.737Z,8.23
2019-05-02T12:40:46.584Z,7.67
2019-05-02T12:43:13.421Z,7.22
2019-05-02T12:45:42.117Z,8.68
2019-05-02T12:48:08.746Z,8.43
2019-05-02T12:50:35.687Z,9.00
2019-05-02T12:53:03.035Z,7.55
2019-05-02T12:55:29.911Z,7.65
2019-05-02T12:57:56.722Z,8.43
2019-05-02T13:00:23.475Z,7.20
2019-05-02T13:02:52.412Z,7.67
2019-05-02T13:05:19.193Z,7.67
2019-05-02T13:07:50.529Z,7.28
2019-05-02T13:10:14.509Z,6.78
2019-05-02T13:12:41.921Z,7.00
2019-05-02T13:15:08.877Z,7.65
2019-05-02T13:17:42.800Z,7.62
2019-05-02T13:20:04.420Z,7.10
2019-05-02T13:22:32.467Z,6.70
2019-05-02T13:24:59.350Z,7.45
2019-05-02T13:27:26.199Z,6.78
2019-05-02T13:29:52.935Z,7.30
2019-05-02T13:32:21.635Z,6.62
2019-05-02T13:34:48.660Z,6.62
2019-05-02T13:37:16.756Z,6.95
2019-05-02T13:39:43.576Z,8.05
2019-05-02T13:42:12.417Z,6.65
2019-05-02T13:44:38.789Z,7.33
2019-05-02T13:47:05.738Z,6.78
2019-05-02T13:49:32.877Z,7.00
2019-05-02T13:52:02.428Z,6.55
2019-05-02T13:54:32.945Z,6.42
2019-05-02T13:57:02.965Z,5.67
2019-05-02T13:59:29.748Z,7.00
2019-05-02T14:01:56.512Z,6.17
2019-05-02T14:04:23.657Z,7.10
2019-05-02T14:06:52.681Z,6.40
2019-05-02T14:09:20.602Z,6.75
2019-05-02T14:11:47.473Z,7.10
2019-05-02T14:14:14.313Z,6.00
2019-05-02T14:16:41.892Z,6.55
2019-05-02T14:19:09.021Z,6.28
2019-05-02T14:21:35.863Z,6.40
2019-05-02T14:24:02.696Z,7.05
2019-05-02T14:26:30.646Z,6.72
2019-05-02T14:28:58.025Z,6.12
2019-05-02T14:31:24.868Z,7.15
2019-05-02T14:33:52.386Z,6.87
2019-05-02T14:36:19.160Z,6.03
2019-05-02T14:38:46.001Z,6.42
2019-05-02T14:41:12.852Z,7.22
2019-05-02T14:43:46.136Z,6.87
2019-05-02T14:46:08.167Z,6.85
2019-05-02T14:48:41.024Z,6.17
2019-05-02T14:51:03.382Z,6.05
2019-05-02T14:53:32.042Z,6.58
2019-05-02T14:56:02.678Z,6.28
2019-05-02T14:58:27.491Z,6.30
2019-05-02T15:00:54.333Z,6.83
2019-05-02T15:03:24.656Z,6.60
2019-05-02T15:05:49.662Z,6.70
2019-05-02T15:08:16.400Z,6.25
2019-05-02T15:10:52.417Z,6.62
2019-05-02T15:13:12.557Z,6.20
2019-05-02T15:15:41.580Z,6.92
2019-05-02T15:18:12.207Z,6.10
2019-05-02T15:20:39.342Z,6.35
2019-05-02T15:23:07.242Z,6.20
2019-05-02T15:25:33.327Z,5.97
2019-05-02T15:28:02.451Z,6.20
2019-05-02T15:30:28.746Z,6.45
2019-05-02T15:32:55.566Z,5.45
2019-05-02T15:35:26.676Z,5.42
2019-05-02T15:37:51.819Z,5.78
2019-05-02T15:40:43.374Z,6.67
2019-05-02T15:42:47.228Z,5.90
2019-05-02T15:45:13.972Z,6.08
2019-05-02T15:47:41.717Z,5.53
2019-05-02T15:50:09.290Z,6.00
2019-05-02T15:52:36.051Z,6.60
2019-05-02T15:55:04.119Z,7.42
2019-05-02T15:57:40.967Z,5.50
2019-05-02T16:00:01.534Z,6.37
2019-05-02T16:02:28.106Z,5.50
2019-05-02T16:04:57.198Z,6.00
2019-05-02T16:07:23.434Z,5.17
2019-05-02T16:09:51.549Z,5.60
2019-05-02T16:12:18.757Z,6.17
2019-05-02T16:14:45.598Z,6.27
2019-05-02T16:17:17.738Z,5.60
2019-05-02T16:19:42.621Z,5.80
2019-05-02T16:22:11.380Z,5.37
2019-05-02T16:24:38.183Z,5.70
2019-05-02T16:27:05.028Z,6.47
2019-05-02T16:29:31.907Z,5.90
2019-05-02T16:31:59.771Z,7.43
2019-05-02T16:34:31.367Z,6.37
2019-05-02T16:36:55.667Z,5.93
2019-05-02T16:39:22.461Z,6.53
2019-05-02T16:41:50.602Z,6.20
2019-05-02T16:44:17.829Z,4.83
2019-05-02T16:46:44.677Z,5.90
2019-05-02T16:49:15.679Z,6.90
2019-05-02T16:51:39.992Z,6.40
2019-05-02T16:54:06.836Z,7.03
2019-05-02T16:56:36.969Z,7.77
2019-05-02T16:59:02.156Z,6.90
2019-05-02T17:01:28.999Z,7.33
2019-05-02T17:03:57.772Z,6.37
2019-05-02T17:06:25.825Z,5.87
2019-05-02T17:08:57.369Z,5.63
2019-05-02T17:11:22.858Z,6.50
2019-05-02T17:13:49.770Z,6.50
2019-05-02T17:16:17.372Z,6.23
2019-05-02T17:18:48.325Z,6.40
2019-05-02T17:21:12.955Z,6.37
2019-05-02T17:23:45.048Z,6.43
2019-05-02T17:26:08.834Z,5.90
2019-05-02T17:28:38.039Z,6.90
2019-05-02T17:31:04.123Z,9.47
2019-05-02T17:33:32.397Z,13.43
2019-05-02T17:35:59.379Z,12.63
2019-05-02T17:38:29.165Z,12.60
2019-05-02T17:40:59.152Z,11.37
2019-05-02T17:43:23.128Z,10.93
2019-05-02T17:45:49.918Z,10.50
2019-05-02T17:48:17.848Z,9.80
2019-05-02T17:50:49.231Z,9.97
2019-05-02T17:53:13.159Z,11.37
2019-05-02T17:55:40.861Z,11.77
2019-05-02T17:58:12.551Z,11.90
2019-05-02T18:00:36.818Z,14.60
2019-05-02T18:03:03.597Z,13.43
2019-05-02T18:05:32.103Z,13.40
2019-05-02T18:07:58.914Z,10.80
2019-05-02T18:10:25.786Z,11.80
2019-05-02T18:12:56.574Z,9.40
2019-05-02T18:15:22.829Z,11.23
2019-05-02T18:17:49.668Z,10.17
2019-05-02T18:20:16.400Z,9.33
2019-05-02T18:22:45.415Z,9.70
2019-05-02T18:25:11.788Z,8.87
2019-05-02T18:27:38.637Z,9.87
2019-05-02T18:30:05.573Z,8.83
2019-05-02T18:32:32.349Z,8.03
2019-05-02T18:35:04.317Z,9.43
2019-05-02T18:37:27.683Z,8.90
2019-05-02T18:39:55.977Z,10.00
2019-05-02T18:42:25.465Z,11.03
2019-05-02T18:44:53.106Z,10.10
2019-05-02T18:47:21.678Z,9.87
2019-05-02T18:49:48.235Z,10.60
2019-05-02T18:52:15.189Z,10.03
2019-05-02T18:54:43.936Z,9.57
2019-05-02T18:57:11.943Z,10.20
2019-05-02T18:59:38.759Z,9.97
2019-05-02T19:02:05.506Z,10.03
2019-05-02T19:04:38.224Z,9.43
2019-05-02T19:07:02.677Z,9.03
2019-05-02T19:09:30.554Z,8.70
2019-05-02T19:12:05.327Z,7.77
2019-05-02T19:14:26.419Z,9.13
2019-05-02T19:16:53.318Z,8.60
2019-05-02T19:19:20.159Z,9.00
2019-05-02T19:21:47.047Z,8.90
2019-05-02T19:24:14.008Z,9.17
2019-05-02T19:26:41.559Z,8.43
2019-05-02T19:29:14.115Z,9.03
2019-05-02T19:31:44.294Z,8.70
2019-05-02T19:34:06.237Z,8.57
2019-05-02T19:36:33.433Z,8.90
2019-05-02T19:39:07.846Z,8.43
2019-05-02T19:41:28.698Z,9.27
2019-05-02T19:43:56.358Z,9.00
2019-05-02T19:46:24.596Z,9.57
2019-05-02T19:48:51.681Z,9.03
2019-05-02T19:51:20.181Z,8.37
2019-05-02T19:53:51.067Z,9.20
2019-05-02T19:56:15.291Z,11.33
2019-05-02T19:58:46.451Z,9.33
2019-05-02T20:01:12.542Z,10.43
2019-05-02T20:03:38.849Z,10.90
2019-05-02T20:06:06.256Z,11.37
2019-05-02T20:08:33.283Z,10.43
2019-05-02T20:11:02.136Z,9.30
2019-05-02T20:13:30.637Z,10.63
2019-05-02T20:16:04.404Z,10.00
2019-05-02T20:18:28.130Z,11.40
2019-05-02T20:20:55.066Z,11.60
2019-05-02T20:23:28.674Z,12.73
2019-05-02T20:25:52.206Z,13.03
2019-05-02T20:28:18.875Z,12.63
2019-05-02T20:30:45.708Z,12.70
2019-05-02T20:33:12.885Z,12.30
2019-05-02T20:35:39.901Z,13.87
2019-05-02T20:38:06.748Z,13.40
2019-05-02T20:40:33.580Z,12.43
2019-05-02T20:43:02.406Z,13.63
2019-05-02T20:45:28.944Z,12.37
2019-05-02T20:47:55.746Z,11.63
2019-05-02T20:50:22.586Z,13.07
2019-05-02T20:52:49.451Z,13.33
2019-05-02T20:55:16.327Z,14.80
2019-05-02T20:57:43.119Z,12.93
2019-05-02T21:00:12.132Z,11.83
2019-05-02T21:02:38.537Z,14.23
2019-05-02T21:05:05.380Z,14.70
2019-05-02T21:07:33.107Z,12.67
2019-05-02T21:10:01.856Z,13.20
2019-05-02T21:12:28.820Z,13.10
2019-05-02T21:14:55.614Z,13.23
2019-05-02T21:17:22.362Z,13.30
2019-05-02T21:19:49.191Z,16.13
2019-05-02T21:22:16.006Z,16.37
2019-05-02T21:24:42.786Z,16.10
2019-05-02T21:27:09.577Z,18.40
2019-05-02T21:29:36.374Z,17.83
2019-05-02T21:32:03.195Z,16.07
2019-05-02T21:34:31.843Z,16.63
2019-05-02T21:36:58.927Z,15.87
2019-05-02T21:39:25.771Z,14.70
2019-05-02T21:41:52.617Z,13.93
2019-05-02T21:44:19.450Z,13.23
2019-05-02T21:46:46.190Z,13.13
2019-05-02T21:49:13.032Z,11.10
2019-05-02T21:51:39.773Z,11.97
2019-05-02T21:54:06.514Z,11.70
2019-05-02T21:56:33.305Z,11.80
2019-05-02T21:59:00.092Z,11.63
2019-05-02T22:01:26.933Z,11.87
2019-05-02T22:03:53.718Z,10.00
2019-05-02T22:06:22.611Z,13.07
2019-05-02T22:08:48.994Z,12.33
2019-05-02T22:11:15.799Z,11.97
2019-05-02T22:13:42.582Z,11.57
2019-05-02T22:16:09.424Z,11.73
2019-05-02T22:18:36.319Z,11.97
2019-05-02T22:21:03.101Z,10.53
2019-05-02T22:23:31.835Z,13.13
2019-05-02T22:25:58.320Z,12.37
2019-05-02T22:28:25.162Z,12.63
2019-05-02T22:30:54.538Z,12.37
2019-05-02T22:33:22.185Z,12.30
2019-05-02T22:35:48.966Z,11.03
2019-05-02T22:38:15.810Z,10.80
2019-05-02T22:40:42.653Z,12.20
2019-05-02T22:43:09.494Z,12.00
2019-05-02T22:45:36.340Z,11.13
2019-05-02T22:48:03.179Z,11.50
2019-05-02T22:50:30.041Z,12.27
2019-05-02T22:52:57.060Z,13.30
2019-05-02T22:55:23.852Z,13.17
2019-05-02T22:57:51.803Z,14.30
2019-05-02T23:00:18.612Z,13.17
2019-05-02T23:02:45.921Z,14.27
2019-05-02T23:05:12.710Z,14.23
2019-05-02T23:07:41.807Z,14.70
2019-05-02T23:10:08.334Z,12.67
2019-05-02T23:12:35.068Z,13.30
2019-05-02T23:15:02.087Z,14.43
2019-05-02T23:17:28.917Z,14.53
2019-05-02T23:19:55.705Z,15.47
2019-05-02T23:22:22.545Z,16.23
2019-05-02T23:24:49.389Z,16.40
2019-05-02T23:27:16.224Z,15.47
2019-05-02T23:29:43.065Z,15.10
2019-05-02T23:32:09.844Z,15.70
2019-05-02T23:34:36.647Z,18.07
2019-05-02T23:37:03.500Z,17.17
2019-05-02T23:39:34.015Z,15.13
2019-05-02T23:42:01.999Z,18.77
2019-05-02T23:44:28.992Z,16.37
2019-05-02T23:46:55.874Z,15.47
2019-05-02T23:49:22.617Z,18.37
2019-05-02T23:51:49.454Z,19.10
2019-05-02T23:54:16.347Z,17.67
2019-05-02T23:56:43.332Z,19.97
2019-05-02T23:59:11.860Z,17.67
